sensor_id;sensor_type;location;lat;lon;timestamp;pressure;altitude;pressure_sealevel;temperature;humidity
83716;BME280;73698;51.138;6.950;2024-01-30T00:01:49;102299.66;;;8.45;74.92
83716;BME280;73698;51.138;6.950;2024-01-30T00:04:14;102296.09;;;8.46;74.83
83716;BME280;73698;51.138;6.950;2024-01-30T00:06:41;102296.03;;;8.47;75.17
83716;BME280;73698;51.138;6.950;2024-01-30T00:09:07;102298.72;;;8.47;74.70
83716;BME280;73698;51.138;6.950;2024-01-30T00:11:33;102295.25;;;8.44;74.87
83716;BME280;73698;51.138;6.950;2024-01-30T00:13:58;102290.81;;;8.43;75.04
83716;BME280;73698;51.138;6.950;2024-01-30T00:16:24;102296.19;;;8.43;74.71
83716;BME280;73698;51.138;6.950;2024-01-30T00:18:53;102281.03;;;8.42;74.93
83716;BME280;73698;51.138;6.950;2024-01-30T00:21:19;102292.66;;;8.41;74.94
83716;BME280;73698;51.138;6.950;2024-01-30T00:23:45;102287.28;;;8.42;75.18
83716;BME280;73698;51.138;6.950;2024-01-30T00:26:10;102291.78;;;8.40;74.86
83716;BME280;73698;51.138;6.950;2024-01-30T00:28:37;102283.81;;;8.39;75.12
83716;BME280;73698;51.138;6.950;2024-01-30T00:31:03;102285.63;;;8.38;74.94
83716;BME280;73698;51.138;6.950;2024-01-30T00:33:28;102284.03;;;8.31;75.46
83716;BME280;73698;51.138;6.950;2024-01-30T00:35:53;102282.25;;;8.30;75.09
83716;BME280;73698;51.138;6.950;2024-01-30T00:38:19;102281.44;;;8.28;75.51
83716;BME280;73698;51.138;6.950;2024-01-30T00:40:44;102287.75;;;8.27;75.56
83716;BME280;73698;51.138;6.950;2024-01-30T00:43:10;102281.34;;;8.31;75.40
83716;BME280;73698;51.138;6.950;2024-01-30T00:45:35;102274.44;;;8.24;75.43
83716;BME280;73698;51.138;6.950;2024-01-30T00:48:01;102274.47;;;8.22;75.67
83716;BME280;73698;51.138;6.950;2024-01-30T00:50:26;102273.56;;;8.23;75.59
83716;BME280;73698;51.138;6.950;2024-01-30T00:52:51;102272.72;;;8.21;75.41
83716;BME280;73698;51.138;6.950;2024-01-30T00:55:17;102270.19;;;8.17;75.72
83716;BME280;73698;51.138;6.950;2024-01-30T00:57:42;102267.53;;;8.17;75.57
83716;BME280;73698;51.138;6.950;2024-01-30T01:00:08;102272.09;;;8.13;75.73
83716;BME280;73698;51.138;6.950;2024-01-30T01:02:37;102270.50;;;8.07;76.21
83716;BME280;73698;51.138;6.950;2024-01-30T01:05:04;102273.19;;;8.07;75.84
83716;BME280;73698;51.138;6.950;2024-01-30T01:07:30;102275.91;;;8.06;76.36
83716;BME280;73698;51.138;6.950;2024-01-30T01:09:55;102274.25;;;8.02;75.99
83716;BME280;73698;51.138;6.950;2024-01-30T01:12:20;102274.31;;;8.00;76.00
83716;BME280;73698;51.138;6.950;2024-01-30T01:14:46;102289.63;;;7.95;76.11
83716;BME280;73698;51.138;6.950;2024-01-30T01:17:11;102277.94;;;7.98;76.87
83716;BME280;73698;51.138;6.950;2024-01-30T01:19:37;102277.00;;;7.99;76.96
83716;BME280;73698;51.138;6.950;2024-01-30T01:22:02;102280.69;;;7.96;76.93
83716;BME280;73698;51.138;6.950;2024-01-30T01:24:30;102286.13;;;7.93;76.74
83716;BME280;73698;51.138;6.950;2024-01-30T01:26:57;102278.25;;;7.89;76.30
83716;BME280;73698;51.138;6.950;2024-01-30T01:29:23;102274.47;;;7.94;76.38
83716;BME280;73698;51.138;6.950;2024-01-30T01:31:54;102276.28;;;7.94;76.86
83716;BME280;73698;51.138;6.950;2024-01-30T01:34:20;102279.91;;;7.93;76.45
83716;BME280;73698;51.138;6.950;2024-01-30T01:36:45;102278.97;;;7.94;76.24
83716;BME280;73698;51.138;6.950;2024-01-30T01:39:10;102280.06;;;7.88;76.72
83716;BME280;73698;51.138;6.950;2024-01-30T01:41:36;102288.97;;;7.89;76.80
83716;BME280;73698;51.138;6.950;2024-01-30T01:44:01;102281.81;;;7.89;76.95
83716;BME280;73698;51.138;6.950;2024-01-30T01:46:27;102282.63;;;7.91;77.33
83716;BME280;73698;51.138;6.950;2024-01-30T01:48:55;102276.44;;;7.89;76.36
83716;BME280;73698;51.138;6.950;2024-01-30T01:51:23;102270.16;;;7.90;76.63
83716;BME280;73698;51.138;6.950;2024-01-30T01:53:50;102267.47;;;7.90;76.66
83716;BME280;73698;51.138;6.950;2024-01-30T01:56:16;102266.75;;;7.85;76.97
83716;BME280;73698;51.138;6.950;2024-01-30T01:58:41;102268.56;;;7.85;77.00
83716;BME280;73698;51.138;6.950;2024-01-30T02:01:09;102262.34;;;7.84;76.81
83716;BME280;73698;51.138;6.950;2024-01-30T02:03:35;102263.16;;;7.86;77.14
83716;BME280;73698;51.138;6.950;2024-01-30T02:06:01;102259.66;;;7.84;76.84
83716;BME280;73698;51.138;6.950;2024-01-30T02:08:28;102261.41;;;7.85;76.54
83716;BME280;73698;51.138;6.950;2024-01-30T02:10:53;102262.22;;;7.87;76.67
83716;BME280;73698;51.138;6.950;2024-01-30T02:13:19;102255.94;;;7.88;76.49
83716;BME280;73698;51.138;6.950;2024-01-30T02:15:49;102254.09;;;7.90;76.86
83716;BME280;73698;51.138;6.950;2024-01-30T02:18:14;102259.59;;;7.86;77.11
83716;BME280;73698;51.138;6.950;2024-01-30T02:20:39;102254.38;;;7.81;77.13
83716;BME280;73698;51.138;6.950;2024-01-30T02:23:06;102259.91;;;7.75;77.22
83716;BME280;73698;51.138;6.950;2024-01-30T02:25:42;102261.63;;;7.77;77.26
83716;BME280;73698;51.138;6.950;2024-01-30T02:28:13;102253.63;;;7.76;77.39
83716;BME280;73698;51.138;6.950;2024-01-30T02:30:47;102252.81;;;7.74;76.90
83716;BME280;73698;51.138;6.950;2024-01-30T02:33:13;102240.22;;;7.77;77.31
83716;BME280;73698;51.138;6.950;2024-01-30T02:35:39;102247.22;;;7.81;76.80
83716;BME280;73698;51.138;6.950;2024-01-30T02:38:04;102245.34;;;7.83;76.68
83716;BME280;73698;51.138;6.950;2024-01-30T02:40:30;102248.03;;;7.83;76.66
83716;BME280;73698;51.138;6.950;2024-01-30T02:42:57;102241.78;;;7.85;76.65
83716;BME280;73698;51.138;6.950;2024-01-30T02:45:23;102239.91;;;7.87;76.97
83716;BME280;73698;51.138;6.950;2024-01-30T02:47:48;102234.53;;;7.88;76.49
83716;BME280;73698;51.138;6.950;2024-01-30T02:50:13;102235.34;;;7.90;76.51
83716;BME280;73698;51.138;6.950;2024-01-30T02:52:40;102240.53;;;7.95;76.58
83716;BME280;73698;51.138;6.950;2024-01-30T02:55:06;102235.16;;;7.96;76.39
83716;BME280;73698;51.138;6.950;2024-01-30T02:57:32;102237.84;;;7.96;76.47
83716;BME280;73698;51.138;6.950;2024-01-30T02:59:57;102228.72;;;8.02;76.14
83716;BME280;73698;51.138;6.950;2024-01-30T03:02:22;102234.13;;;8.00;76.59
83716;BME280;73698;51.138;6.950;2024-01-30T03:04:48;102233.13;;;8.03;75.84
83716;BME280;73698;51.138;6.950;2024-01-30T03:07:13;102226.91;;;8.02;76.27
83716;BME280;73698;51.138;6.950;2024-01-30T03:09:41;102229.72;;;7.98;76.38
83716;BME280;73698;51.138;6.950;2024-01-30T03:12:06;102222.66;;;7.95;76.64
83716;BME280;73698;51.138;6.950;2024-01-30T03:14:32;102224.44;;;7.96;76.77
83716;BME280;73698;51.138;6.950;2024-01-30T03:16:57;102212.84;;;7.96;76.12
83716;BME280;73698;51.138;6.950;2024-01-30T03:19:23;102221.69;;;7.98;76.45
83716;BME280;73698;51.138;6.950;2024-01-30T03:21:49;102221.69;;;7.98;76.00
83716;BME280;73698;51.138;6.950;2024-01-30T03:24:14;102219.94;;;7.97;76.75
83716;BME280;73698;51.138;6.950;2024-01-30T03:26:39;102213.59;;;7.99;76.15
83716;BME280;73698;51.138;6.950;2024-01-30T03:29:05;102217.97;;;8.03;76.17
83716;BME280;73698;51.138;6.950;2024-01-30T03:31:30;102211.56;;;8.07;76.41
83716;BME280;73698;51.138;6.950;2024-01-30T03:33:56;102207.19;;;8.05;76.31
83716;BME280;73698;51.138;6.950;2024-01-30T03:36:21;102216.16;;;8.04;76.27
83716;BME280;73698;51.138;6.950;2024-01-30T03:38:47;102211.56;;;8.07;76.24
83716;BME280;73698;51.138;6.950;2024-01-30T03:41:12;102216.97;;;8.06;76.22
83716;BME280;73698;51.138;6.950;2024-01-30T03:43:37;102210.78;;;8.04;75.87
83716;BME280;73698;51.138;6.950;2024-01-30T03:46:03;102208.94;;;8.06;76.48
83716;BME280;73698;51.138;6.950;2024-01-30T03:48:29;102209.00;;;8.04;75.98
83716;BME280;73698;51.138;6.950;2024-01-30T03:50:54;102211.59;;;8.06;76.01
83716;BME280;73698;51.138;6.950;2024-01-30T03:53:20;102206.34;;;8.03;76.04
83716;BME280;73698;51.138;6.950;2024-01-30T03:55:45;102200.19;;;7.99;76.67
83716;BME280;73698;51.138;6.950;2024-01-30T03:58:11;102204.75;;;7.97;76.51
83716;BME280;73698;51.138;6.950;2024-01-30T04:00:36;102204.75;;;7.97;76.31
83716;BME280;73698;51.138;6.950;2024-01-30T04:03:02;102199.50;;;7.94;77.02
83716;BME280;73698;51.138;6.950;2024-01-30T04:05:28;102195.84;;;7.97;76.31
83716;BME280;73698;51.138;6.950;2024-01-30T04:07:53;102201.91;;;8.02;76.58
83716;BME280;73698;51.138;6.950;2024-01-30T04:10:18;102197.53;;;7.99;76.34
83716;BME280;73698;51.138;6.950;2024-01-30T04:12:44;102196.63;;;8.00;76.28
83716;BME280;73698;51.138;6.950;2024-01-30T04:15:10;102206.56;;;7.97;76.47
83716;BME280;73698;51.138;6.950;2024-01-30T04:17:35;102196.66;;;7.99;76.17
83716;BME280;73698;51.138;6.950;2024-01-30T04:20:01;102185.16;;;7.95;76.27
83716;BME280;73698;51.138;6.950;2024-01-30T04:22:26;102198.63;;;7.94;76.58
83716;BME280;73698;51.138;6.950;2024-01-30T04:24:51;102193.44;;;7.88;77.16
83716;BME280;73698;51.138;6.950;2024-01-30T04:27:17;102201.53;;;7.86;77.20
83716;BME280;73698;51.138;6.950;2024-01-30T04:29:42;102195.41;;;7.82;77.12
83716;BME280;73698;51.138;6.950;2024-01-30T04:32:09;102194.69;;;7.77;77.12
83716;BME280;73698;51.138;6.950;2024-01-30T04:34:36;102198.34;;;7.75;77.41
83716;BME280;73698;51.138;6.950;2024-01-30T04:37:01;102200.31;;;7.68;77.69
83716;BME280;73698;51.138;6.950;2024-01-30T04:39:27;102205.88;;;7.62;77.29
83716;BME280;73698;51.138;6.950;2024-01-30T04:41:52;102204.25;;;7.56;77.96
83716;BME280;73698;51.138;6.950;2024-01-30T04:44:18;102193.75;;;7.50;77.51
83716;BME280;73698;51.138;6.950;2024-01-30T04:46:43;102197.31;;;7.51;78.35
83716;BME280;73698;51.138;6.950;2024-01-30T04:49:08;102198.25;;;7.50;78.36
83716;BME280;73698;51.138;6.950;2024-01-30T04:51:34;102200.13;;;7.46;78.05
83716;BME280;73698;51.138;6.950;2024-01-30T04:53:59;102193.84;;;7.47;78.33
83716;BME280;73698;51.138;6.950;2024-01-30T04:56:25;102206.50;;;7.42;78.66
83716;BME280;73698;51.138;6.950;2024-01-30T04:58:50;102198.50;;;7.41;78.19
83716;BME280;73698;51.138;6.950;2024-01-30T05:01:16;102201.03;;;7.45;78.48
83716;BME280;73698;51.138;6.950;2024-01-30T05:03:41;102193.22;;;7.39;78.43
83716;BME280;73698;51.138;6.950;2024-01-30T05:06:07;102197.72;;;7.37;78.88
83716;BME280;73698;51.138;6.950;2024-01-30T05:08:32;102191.41;;;7.40;79.10
83716;BME280;73698;51.138;6.950;2024-01-30T05:11:00;102187.63;;;7.47;78.80
83716;BME280;73698;51.138;6.950;2024-01-30T05:13:27;102191.19;;;7.47;78.30
83716;BME280;73698;51.138;6.950;2024-01-30T05:15:52;102183.00;;;7.52;77.75
83716;BME280;73698;51.138;6.950;2024-01-30T05:18:17;102185.75;;;7.50;78.42
83716;BME280;73698;51.138;6.950;2024-01-30T05:20:43;102188.34;;;7.52;78.36
83716;BME280;73698;51.138;6.950;2024-01-30T05:23:08;102185.69;;;7.52;78.15
83716;BME280;73698;51.138;6.950;2024-01-30T05:25:33;102187.41;;;7.53;78.10
83716;BME280;73698;51.138;6.950;2024-01-30T05:27:59;102182.03;;;7.54;78.69
83716;BME280;73698;51.138;6.950;2024-01-30T05:30:25;102181.94;;;7.57;77.93
83716;BME280;73698;51.138;6.950;2024-01-30T05:32:50;102181.94;;;7.57;77.94
83716;BME280;73698;51.138;6.950;2024-01-30T05:35:15;102181.00;;;7.58;78.28
83716;BME280;73698;51.138;6.950;2024-01-30T05:37:41;102178.25;;;7.62;78.02
83716;BME280;73698;51.138;6.950;2024-01-30T05:40:07;102172.03;;;7.61;77.33
83716;BME280;73698;51.138;6.950;2024-01-30T05:42:33;102164.03;;;7.59;78.23
83716;BME280;73698;51.138;6.950;2024-01-30T05:44:58;102174.78;;;7.58;77.73
83716;BME280;73698;51.138;6.950;2024-01-30T05:47:23;102179.44;;;7.51;78.16
83716;BME280;73698;51.138;6.950;2024-01-30T05:49:49;102176.00;;;7.48;78.56
83716;BME280;73698;51.138;6.950;2024-01-30T05:52:15;102172.34;;;7.50;78.20
83716;BME280;73698;51.138;6.950;2024-01-30T05:54:41;102172.19;;;7.55;77.95
83716;BME280;73698;51.138;6.950;2024-01-30T05:57:06;102172.13;;;7.58;77.72
83716;BME280;73698;51.138;6.950;2024-01-30T05:59:32;102184.63;;;7.57;78.31
83716;BME280;73698;51.138;6.950;2024-01-30T06:01:57;102180.16;;;7.58;78.53
83716;BME280;73698;51.138;6.950;2024-01-30T06:04:23;102183.72;;;7.57;78.18
83716;BME280;73698;51.138;6.950;2024-01-30T06:06:48;102185.53;;;7.56;78.45
83716;BME280;73698;51.138;6.950;2024-01-30T06:09:14;102184.66;;;7.56;78.00
83716;BME280;73698;51.138;6.950;2024-01-30T06:11:39;102178.50;;;7.54;77.86
83716;BME280;73698;51.138;6.950;2024-01-30T06:14:05;102179.31;;;7.56;78.41
83716;BME280;73698;51.138;6.950;2024-01-30T06:16:30;102180.22;;;7.55;78.45
83716;BME280;73698;51.138;6.950;2024-01-30T06:18:56;102183.63;;;7.60;78.20
83716;BME280;73698;51.138;6.950;2024-01-30T06:21:22;102180.16;;;7.58;77.90
83716;BME280;73698;51.138;6.950;2024-01-30T06:23:50;102181.03;;;7.57;78.19
83716;BME280;73698;51.138;6.950;2024-01-30T06:26:16;102181.00;;;7.58;78.22
83716;BME280;73698;51.138;6.950;2024-01-30T06:28:41;102176.38;;;7.64;77.75
83716;BME280;73698;51.138;6.950;2024-01-30T06:31:07;102178.13;;;7.65;77.70
83716;BME280;73698;51.138;6.950;2024-01-30T06:33:32;102173.72;;;7.64;78.41
83716;BME280;73698;51.138;6.950;2024-01-30T06:36:01;102176.22;;;7.68;77.83
83716;BME280;73698;51.138;6.950;2024-01-30T06:38:26;102171.63;;;7.73;77.60
83716;BME280;73698;51.138;6.950;2024-01-30T06:40:52;102168.94;;;7.73;77.92
83716;BME280;73698;51.138;6.950;2024-01-30T06:43:18;102165.41;;;7.73;77.40
83716;BME280;73698;51.138;6.950;2024-01-30T06:45:43;102163.53;;;7.75;77.66
83716;BME280;73698;51.138;6.950;2024-01-30T06:48:09;102159.91;;;7.76;77.21
83716;BME280;73698;51.138;6.950;2024-01-30T06:50:34;102160.69;;;7.79;77.27
83716;BME280;73698;51.138;6.950;2024-01-30T06:53:00;102158.00;;;7.79;77.45
83716;BME280;73698;51.138;6.950;2024-01-30T06:55:25;102156.22;;;7.80;77.75
83716;BME280;73698;51.138;6.950;2024-01-30T06:57:51;102159.81;;;7.79;77.39
83716;BME280;73698;51.138;6.950;2024-01-30T07:00:16;102166.06;;;7.79;77.73
83716;BME280;73698;51.138;6.950;2024-01-30T07:02:44;102164.38;;;7.77;77.01
83716;BME280;73698;51.138;6.950;2024-01-30T07:05:09;102172.44;;;7.75;77.56
83716;BME280;73698;51.138;6.950;2024-01-30T07:07:35;102167.94;;;7.76;77.54
83716;BME280;73698;51.138;6.950;2024-01-30T07:10:00;102177.84;;;7.74;78.06
83716;BME280;73698;51.138;6.950;2024-01-30T07:12:26;102186.81;;;7.73;77.80
83716;BME280;73698;51.138;6.950;2024-01-30T07:14:52;102183.28;;;7.71;78.11
83716;BME280;73698;51.138;6.950;2024-01-30T07:17:17;102190.41;;;7.72;78.40
83716;BME280;73698;51.138;6.950;2024-01-30T07:19:43;102185.91;;;7.72;78.22
83716;BME280;73698;51.138;6.950;2024-01-30T07:22:08;102194.78;;;7.74;77.83
83716;BME280;73698;51.138;6.950;2024-01-30T07:24:34;102186.75;;;7.74;77.92
83716;BME280;73698;51.138;6.950;2024-01-30T07:27:00;102193.91;;;7.74;78.12
83716;BME280;73698;51.138;6.950;2024-01-30T07:29:25;102195.56;;;7.78;77.55
83716;BME280;73698;51.138;6.950;2024-01-30T07:31:50;102206.13;;;7.82;78.02
83716;BME280;73698;51.138;6.950;2024-01-30T07:34:16;102198.97;;;7.83;78.06
83716;BME280;73698;51.138;6.950;2024-01-30T07:36:41;102202.38;;;7.88;77.90
83716;BME280;73698;51.138;6.950;2024-01-30T07:39:07;102201.38;;;7.91;77.62
83716;BME280;73698;51.138;6.950;2024-01-30T07:41:32;102198.69;;;7.92;77.88
83716;BME280;73698;51.138;6.950;2024-01-30T07:43:58;102208.47;;;7.93;77.40
83716;BME280;73698;51.138;6.950;2024-01-30T07:46:23;102205.78;;;7.93;77.35
83716;BME280;73698;51.138;6.950;2024-01-30T07:48:49;102208.38;;;7.96;77.56
83716;BME280;73698;51.138;6.950;2024-01-30T07:51:14;102211.81;;;8.00;77.74
83716;BME280;73698;51.138;6.950;2024-01-30T07:53:40;102210.78;;;8.04;77.17
83716;BME280;73698;51.138;6.950;2024-01-30T07:56:05;102212.53;;;8.05;76.82
83716;BME280;73698;51.138;6.950;2024-01-30T07:58:31;102213.34;;;8.07;77.86
83716;BME280;73698;51.138;6.950;2024-01-30T08:00:56;102220.47;;;8.08;77.23
83716;BME280;73698;51.138;6.950;2024-01-30T08:03:23;102211.59;;;8.06;77.61
83716;BME280;73698;51.138;6.950;2024-01-30T08:05:49;102212.38;;;8.10;77.52
83716;BME280;73698;51.138;6.950;2024-01-30T08:08:14;102225.84;;;8.08;77.47
83716;BME280;73698;51.138;6.950;2024-01-30T08:10:40;102226.66;;;8.10;77.09
83716;BME280;73698;51.138;6.950;2024-01-30T08:13:06;102217.75;;;8.10;77.51
83716;BME280;73698;51.138;6.950;2024-01-30T08:15:31;102222.16;;;8.11;77.50
83716;BME280;73698;51.138;6.950;2024-01-30T08:17:57;102220.31;;;8.13;77.31
83716;BME280;73698;51.138;6.950;2024-01-30T08:20:24;102214.81;;;8.17;77.52
83716;BME280;73698;51.138;6.950;2024-01-30T08:22:50;102219.09;;;8.23;77.03
83716;BME280;73698;51.138;6.950;2024-01-30T08:25:15;102221.78;;;8.23;77.23
83716;BME280;73698;51.138;6.950;2024-01-30T08:27:40;102214.53;;;8.25;77.24
83716;BME280;73698;51.138;6.950;2024-01-30T08:30:07;102213.56;;;8.27;76.87
83716;BME280;73698;51.138;6.950;2024-01-30T08:32:32;102211.66;;;8.31;76.53
83716;BME280;73698;51.138;6.950;2024-01-30T08:34:58;102213.34;;;8.33;77.02
83716;BME280;73698;51.138;6.950;2024-01-30T08:37:24;102214.25;;;8.34;76.69
83716;BME280;73698;51.138;6.950;2024-01-30T08:39:49;102223.97;;;8.38;76.17
83716;BME280;73698;51.138;6.950;2024-01-30T08:42:14;102219.38;;;8.42;76.46
83716;BME280;73698;51.138;6.950;2024-01-30T08:44:41;102229.94;;;8.46;76.22
83716;BME280;73698;51.138;6.950;2024-01-30T08:47:06;102227.16;;;8.49;76.26
83716;BME280;73698;51.138;6.950;2024-01-30T08:49:31;102239.53;;;8.53;75.83
83716;BME280;73698;51.138;6.950;2024-01-30T08:51:57;102235.84;;;8.56;76.45
83716;BME280;73698;51.138;6.950;2024-01-30T08:54:23;102235.75;;;8.59;76.45
83716;BME280;73698;51.138;6.950;2024-01-30T08:56:49;102242.69;;;8.65;76.20
83716;BME280;73698;51.138;6.950;2024-01-30T08:59:14;102239.88;;;8.69;76.18
83716;BME280;73698;51.138;6.950;2024-01-30T09:01:40;102241.50;;;8.73;75.72
83716;BME280;73698;51.138;6.950;2024-01-30T09:04:06;102243.94;;;8.79;75.50
83716;BME280;73698;51.138;6.950;2024-01-30T09:06:32;102246.34;;;8.87;75.17
83716;BME280;73698;51.138;6.950;2024-01-30T09:08:57;102252.50;;;8.91;75.69
83716;BME280;73698;51.138;6.950;2024-01-30T09:11:23;102259.50;;;8.95;75.44
83716;BME280;73698;51.138;6.950;2024-01-30T09:13:48;102259.38;;;8.99;75.10
83716;BME280;73698;51.138;6.950;2024-01-30T09:16:14;102258.31;;;9.03;74.95
83716;BME280;73698;51.138;6.950;2024-01-30T09:18:41;102254.44;;;9.11;75.03
83716;BME280;73698;51.138;6.950;2024-01-30T09:21:06;102268.53;;;9.17;74.51
83716;BME280;73698;51.138;6.950;2024-01-30T09:23:32;102256.72;;;9.23;74.50
83716;BME280;73698;51.138;6.950;2024-01-30T09:25:57;102259.13;;;9.29;74.23
83716;BME280;73698;51.138;6.950;2024-01-30T09:28:23;102258.97;;;9.34;74.03
83716;BME280;73698;51.138;6.950;2024-01-30T09:30:48;102264.19;;;9.38;73.74
83716;BME280;73698;51.138;6.950;2024-01-30T09:33:14;102270.31;;;9.42;73.46
83716;BME280;73698;51.138;6.950;2024-01-30T09:35:39;102272.75;;;9.48;74.50
83716;BME280;73698;51.138;6.950;2024-01-30T09:38:04;102285.09;;;9.53;74.06
83716;BME280;73698;51.138;6.950;2024-01-30T09:40:30;102287.63;;;9.57;73.49
83716;BME280;73698;51.138;6.950;2024-01-30T09:42:56;102285.69;;;9.60;74.14
83716;BME280;73698;51.138;6.950;2024-01-30T09:45:24;102279.16;;;9.67;74.07
83716;BME280;73698;51.138;6.950;2024-01-30T09:47:50;102279.94;;;9.71;72.80
83716;BME280;73698;51.138;6.950;2024-01-30T09:50:16;102286.75;;;9.79;72.99
83716;BME280;73698;51.138;6.950;2024-01-30T09:52:46;102281.22;;;9.84;71.81
83716;BME280;73698;51.138;6.950;2024-01-30T09:55:12;102281.78;;;9.92;72.57
83716;BME280;73698;51.138;6.950;2024-01-30T09:57:37;102276.91;;;10.02;72.67
83716;BME280;73698;51.138;6.950;2024-01-30T10:00:04;102275.03;;;10.04;72.26
83716;BME280;73698;51.138;6.950;2024-01-30T10:02:31;102277.53;;;10.09;72.11
83716;BME280;73698;51.138;6.950;2024-01-30T10:04:57;102284.31;;;10.19;72.06
83716;BME280;73698;51.138;6.950;2024-01-30T10:07:23;102278.97;;;10.17;71.15
83716;BME280;73698;51.138;6.950;2024-01-30T10:09:48;102285.91;;;10.23;71.13
83716;BME280;73698;51.138;6.950;2024-01-30T10:12:15;102284.88;;;10.27;72.03
83716;BME280;73698;51.138;6.950;2024-01-30T10:14:41;102281.13;;;10.31;71.48
83716;BME280;73698;51.138;6.950;2024-01-30T10:17:08;102282.56;;;10.40;71.58
83716;BME280;73698;51.138;6.950;2024-01-30T10:19:41;102286.53;;;10.51;71.53
83716;BME280;73698;51.138;6.950;2024-01-30T10:22:07;102289.91;;;10.57;71.75
83716;BME280;73698;51.138;6.950;2024-01-30T10:24:36;102279.84;;;10.62;71.08
83716;BME280;73698;51.138;6.950;2024-01-30T10:27:02;102275.97;;;10.69;71.48
83716;BME280;73698;51.138;6.950;2024-01-30T10:29:28;102290.31;;;10.68;71.37
83716;BME280;73698;51.138;6.950;2024-01-30T10:32:12;102282.00;;;10.74;71.08
83716;BME280;73698;51.138;6.950;2024-01-30T10:34:37;102283.53;;;10.80;70.61
83716;BME280;73698;51.138;6.950;2024-01-30T10:37:10;102286.94;;;10.85;70.03
83716;BME280;73698;51.138;6.950;2024-01-30T10:39:44;102285.16;;;10.84;70.07
83716;BME280;73698;51.138;6.950;2024-01-30T10:42:18;102293.09;;;10.87;70.11
83716;BME280;73698;51.138;6.950;2024-01-30T10:45:08;102287.38;;;10.94;70.28
83716;BME280;73698;51.138;6.950;2024-01-30T10:47:35;102272.09;;;10.95;70.46
83716;BME280;73698;51.138;6.950;2024-01-30T10:50:04;102275.88;;;10.91;69.46
83716;BME280;73698;51.138;6.950;2024-01-30T10:52:32;102273.34;;;10.88;69.84
83716;BME280;73698;51.138;6.950;2024-01-30T10:54:58;102269.75;;;10.87;70.08
83716;BME280;73698;51.138;6.950;2024-01-30T10:57:24;102267.75;;;10.92;71.06
83716;BME280;73698;51.138;6.950;2024-01-30T10:59:52;102273.53;;;11.04;70.39
83716;BME280;73698;51.138;6.950;2024-01-30T11:02:19;102275.81;;;11.13;70.22
83716;BME280;73698;51.138;6.950;2024-01-30T11:04:45;102278.91;;;11.24;71.30
83716;BME280;73698;51.138;6.950;2024-01-30T11:07:18;102284.59;;;11.37;71.71
83716;BME280;73698;51.138;6.950;2024-01-30T11:12:16;102279.53;;;11.49;68.63
83716;BME280;73698;51.138;6.950;2024-01-30T11:14:41;102272.47;;;11.47;67.79
83716;BME280;73698;51.138;6.950;2024-01-30T11:17:09;102273.41;;;11.46;68.37
83716;BME280;73698;51.138;6.950;2024-01-30T11:19:35;102275.75;;;11.54;70.11
83716;BME280;73698;51.138;6.950;2024-01-30T11:22:00;102277.25;;;11.59;69.58
83716;BME280;73698;51.138;6.950;2024-01-30T11:24:27;102283.53;;;11.60;69.05
83716;BME280;73698;51.138;6.950;2024-01-30T11:26:56;102280.56;;;11.66;69.98
83716;BME280;73698;51.138;6.950;2024-01-30T11:29:27;102281.34;;;11.68;69.55
83716;BME280;73698;51.138;6.950;2024-01-30T11:31:56;102284.22;;;11.65;68.43
83716;BME280;73698;51.138;6.950;2024-01-30T11:34:22;102277.63;;;11.70;68.86
83716;BME280;73698;51.138;6.950;2024-01-30T11:36:52;102280.97;;;11.76;68.31
83716;BME280;73698;51.138;6.950;2024-01-30T11:39:24;102286.09;;;11.82;68.66
83716;BME280;73698;51.138;6.950;2024-01-30T11:41:54;102277.81;;;11.86;69.25
83716;BME280;73698;51.138;6.950;2024-01-30T11:44:20;102272.91;;;11.94;68.83
83716;BME280;73698;51.138;6.950;2024-01-30T11:46:50;102277.88;;;12.04;69.11
83716;BME280;73698;51.138;6.950;2024-01-30T11:49:16;102271.25;;;12.11;68.13
83716;BME280;73698;51.138;6.950;2024-01-30T11:51:42;102269.81;;;12.04;67.20
83716;BME280;73698;51.138;6.950;2024-01-30T11:54:08;102270.28;;;12.12;68.22
83716;BME280;73698;51.138;6.950;2024-01-30T11:56:34;102276.47;;;12.14;67.48
83716;BME280;73698;51.138;6.950;2024-01-30T11:58:59;102278.25;;;12.15;67.89
83716;BME280;73698;51.138;6.950;2024-01-30T12:01:27;102281.56;;;12.20;68.45
83716;BME280;73698;51.138;6.950;2024-01-30T12:03:52;102280.69;;;12.19;67.91
83716;BME280;73698;51.138;6.950;2024-01-30T12:06:18;102283.78;;;12.12;68.05
83716;BME280;73698;51.138;6.950;2024-01-30T12:08:59;102276.66;;;12.11;68.04
83716;BME280;73698;51.138;6.950;2024-01-30T12:11:25;102284.16;;;12.04;68.83
83716;BME280;73698;51.138;6.950;2024-01-30T12:13:52;102280.63;;;12.02;68.22
83716;BME280;73698;51.138;6.950;2024-01-30T12:16:18;102284.38;;;12.00;69.23
83716;BME280;73698;51.138;6.950;2024-01-30T12:18:44;102291.88;;;11.93;69.28
83716;BME280;73698;51.138;6.950;2024-01-30T12:21:09;102287.59;;;11.89;69.10
83716;BME280;73698;51.138;6.950;2024-01-30T12:23:35;102283.28;;;11.85;69.39
83716;BME280;73698;51.138;6.950;2024-01-30T12:26:01;102275.19;;;11.85;70.02
83716;BME280;73698;51.138;6.950;2024-01-30T12:28:29;102282.53;;;11.81;70.04
83716;BME280;73698;51.138;6.950;2024-01-30T12:31:01;102288.06;;;11.78;69.93
83716;BME280;73698;51.138;6.950;2024-01-30T12:33:27;102278.38;;;11.74;69.48
83716;BME280;73698;51.138;6.950;2024-01-30T12:35:53;102275.03;;;11.69;70.02
83716;BME280;73698;51.138;6.950;2024-01-30T12:38:19;102277.03;;;11.64;71.26
83716;BME280;73698;51.138;6.950;2024-01-30T12:40:44;102273.63;;;11.60;70.84
83716;BME280;73698;51.138;6.950;2024-01-30T12:43:10;102282.88;;;11.55;70.69
83716;BME280;73698;51.138;6.950;2024-01-30T12:45:36;102280.41;;;11.50;71.21
83716;BME280;73698;51.138;6.950;2024-01-30T12:48:02;102278.72;;;11.47;71.66
83716;BME280;73698;51.138;6.950;2024-01-30T12:50:27;102285.09;;;11.45;71.71
83716;BME280;73698;51.138;6.950;2024-01-30T12:52:53;102286.94;;;11.44;71.91
83716;BME280;73698;51.138;6.950;2024-01-30T12:55:18;102285.41;;;11.39;72.22